Aérodrome :
LOGIN :

S'inscrire | Disclaimer

   EN    FR    IT 

 










Légende :    VFR   VFR Marginal   IFR   IFR Intensif   IFR Très Intensif
Visi : 
Plafond : 
>= 8 km
>= 3000ft
5 à 8 km
1000 à 3000 ft
1500m à 5 km
500 à 1000 ft
800 à 1500m
200 à 500 ft
< 800m
< 200 ft
Symboles :   Orages  Brouillard  Fortes neiges  Fortes précipitations  Vent > 20 kt
SIGMETs :   Divers  Orages  Givrage  Turbulence  Onde Orograph.  Cendres Volcan.






- Altitude de l'aérodrome : 172 ft
- Code IATA : ODS


UKOO - Odesa

DERNIER METAR :
  • 170100Z 16003MPS CAVOK 01/M00 Q1030 R16/090060 NOSIG

METARs EXPIRÉS :
  • 170030Z 16002MPS CAVOK 01/M00 Q1031 R16/090060 NOSIG
  • 170000Z 16004MPS CAVOK 02/00 Q1031 R16/090060 NOSIG
  • 162330Z 15003MPS CAVOK 02/00 Q1031 R16/090060 NOSIG
  • 162300Z 15002MPS CAVOK 02/00 Q1031 R16/090060 NOSIG
  • 162230Z 15003MPS CAVOK 01/M00 Q1031 R16/090060 NOSIG

TAF TAF UKOO
Valide du 17 à 00h jusqu'au 18 à 00h UTC


162305Z 1700/1724 16003MPS 2100 BR BKN007 TX07/1712Z TNM01/1704Z
PROB40
TEMPO 1700/1706 0300 FZFG VV002
BECMG 1706/1708 18005G11MPS 6000 NSW
TEMPO 1718/1724 2100 BR



MET'MAP, la Météo Aéronautique d'un coup d'oeil ! - Copyright ORBIFLY Décembre 2007 - Disclaimer

ORBIFLY MET'MAP TEAM :

Programmation & Développement : Alexandra Zaïnal
Sur une idée originale de : Baudouin d'Aumeries
Assistance à la programmation : Marc-Olivier Méhu
Soutien technique & logistique : Manuel Goepfert

Contact : metmap@orbifly.com




SOURCES & CREDITS :

   NOAA